sensor_id;sensor_type;location;lat;lon;timestamp;pressure;altitude;pressure_sealevel;temperature
64175;BMP280;50469;50.438;-119.202;2022-09-12T00:01:24;97171.69;;;24.47
64175;BMP280;50469;50.438;-119.202;2022-09-12T00:03:59;97173.16;;;24.31
64175;BMP280;50469;50.438;-119.202;2022-09-12T00:06:33;97181.63;;;24.27
64175;BMP280;50469;50.438;-119.202;2022-09-12T00:09:03;97180.13;;;24.26
64175;BMP280;50469;50.438;-119.202;2022-09-12T00:11:34;97174.41;;;24.52
64175;BMP280;50469;50.438;-119.202;2022-09-12T00:14:03;97178.13;;;24.60
64175;BMP280;50469;50.438;-119.202;2022-09-12T00:16:36;97173.41;;;24.22
64175;BMP280;50469;50.438;-119.202;2022-09-12T00:19:05;97181.03;;;23.73
64175;BMP280;50469;50.438;-119.202;2022-09-12T00:21:35;97176.31;;;23.68
64175;BMP280;50469;50.438;-119.202;2022-09-12T00:24:03;97185.75;;;23.67
64175;BMP280;50469;50.438;-119.202;2022-09-12T00:26:34;97186.97;;;23.60
64175;BMP280;50469;50.438;-119.202;2022-09-12T00:29:03;97187.94;;;23.51
64175;BMP280;50469;50.438;-119.202;2022-09-12T00:31:31;97193.22;;;23.66
64175;BMP280;50469;50.438;-119.202;2022-09-12T00:33:59;97198.75;;;23.88
64175;BMP280;50469;50.438;-119.202;2022-09-12T00:36:30;97194.94;;;23.63
64175;BMP280;50469;50.438;-119.202;2022-09-12T00:39:01;97192.88;;;23.47
64175;BMP280;50469;50.438;-119.202;2022-09-12T00:41:39;97187.25;;;23.62
64175;BMP280;50469;50.438;-119.202;2022-09-12T00:47:03;97186.50;;;23.73
64175;BMP280;50469;50.438;-119.202;2022-09-12T00:49:54;97183.78;;;23.73
64175;BMP280;50469;50.438;-119.202;2022-09-12T00:52:57;97189.94;;;23.51
64175;BMP280;50469;50.438;-119.202;2022-09-12T00:55:37;97186.31;;;23.22
64175;BMP280;50469;50.438;-119.202;2022-09-12T00:58:12;97183.22;;;23.46
64175;BMP280;50469;50.438;-119.202;2022-09-12T01:00:41;97175.78;;;23.58
64175;BMP280;50469;50.438;-119.202;2022-09-12T01:03:19;97174.59;;;23.76
64175;BMP280;50469;50.438;-119.202;2022-09-12T01:06:11;97170.34;;;23.75
64175;BMP280;50469;50.438;-119.202;2022-09-12T01:08:43;97174.31;;;23.62
64175;BMP280;50469;50.438;-119.202;2022-09-12T01:11:11;97164.56;;;23.45
64175;BMP280;50469;50.438;-119.202;2022-09-12T01:13:40;97173.69;;;23.30
64175;BMP280;50469;50.438;-119.202;2022-09-12T01:16:09;97168.69;;;23.18
64175;BMP280;50469;50.438;-119.202;2022-09-12T01:35:10;97182.50;;;22.34
64175;BMP280;50469;50.438;-119.202;2022-09-12T01:40:34;97184.78;;;22.09
64175;BMP280;50469;50.438;-119.202;2022-09-12T01:48:46;97187.75;;;21.65
64175;BMP280;50469;50.438;-119.202;2022-09-12T01:51:43;97194.31;;;21.58
64175;BMP280;50469;50.438;-119.202;2022-09-12T01:54:28;97198.63;;;21.45
64175;BMP280;50469;50.438;-119.202;2022-09-12T01:57:06;97200.13;;;20.75
64175;BMP280;50469;50.438;-119.202;2022-09-12T01:59:42;97201.22;;;20.98
64175;BMP280;50469;50.438;-119.202;2022-09-12T02:02:15;97198.59;;;20.89
64175;BMP280;50469;50.438;-119.202;2022-09-12T02:05:14;97201.91;;;20.49
64175;BMP280;50469;50.438;-119.202;2022-09-12T02:07:52;97204.94;;;19.97
64175;BMP280;50469;50.438;-119.202;2022-09-12T02:10:27;97195.53;;;19.98
64175;BMP280;50469;50.438;-119.202;2022-09-12T02:13:14;97192.59;;;20.11
64175;BMP280;50469;50.438;-119.202;2022-09-12T02:15:51;97196.50;;;19.71
64175;BMP280;50469;50.438;-119.202;2022-09-12T02:18:22;97190.47;;;19.52
64175;BMP280;50469;50.438;-119.202;2022-09-12T02:20:53;97188.59;;;19.34
64175;BMP280;50469;50.438;-119.202;2022-09-12T02:23:26;97197.84;;;19.52
64175;BMP280;50469;50.438;-119.202;2022-09-12T02:26:02;97199.81;;;19.51
64175;BMP280;50469;50.438;-119.202;2022-09-12T02:28:37;97186.59;;;19.44
64175;BMP280;50469;50.438;-119.202;2022-09-12T02:39:06;97211.78;;;19.11
64175;BMP280;50469;50.438;-119.202;2022-09-12T02:41:34;97206.97;;;18.97
64175;BMP280;50469;50.438;-119.202;2022-09-12T02:44:03;97203.25;;;18.85
64175;BMP280;50469;50.438;-119.202;2022-09-12T02:46:38;97199.13;;;18.57
64175;BMP280;50469;50.438;-119.202;2022-09-12T02:49:10;97210.41;;;18.64
64175;BMP280;50469;50.438;-119.202;2022-09-12T02:51:44;97207.09;;;18.42
64175;BMP280;50469;50.438;-119.202;2022-09-12T02:54:13;97207.84;;;18.33
64175;BMP280;50469;50.438;-119.202;2022-09-12T02:56:44;97208.94;;;18.17
64175;BMP280;50469;50.438;-119.202;2022-09-12T02:59:16;97212.41;;;18.18
64175;BMP280;50469;50.438;-119.202;2022-09-12T03:01:59;97227.47;;;16.66
64175;BMP280;50469;50.438;-119.202;2022-09-12T03:07:59;97239.38;;;16.69
64175;BMP280;50469;50.438;-119.202;2022-09-12T03:10:31;97240.53;;;16.90
64175;BMP280;50469;50.438;-119.202;2022-09-12T03:16:32;97238.63;;;17.00
64175;BMP280;50469;50.438;-119.202;2022-09-12T03:22:20;97252.94;;;16.56
64175;BMP280;50469;50.438;-119.202;2022-09-12T03:27:26;97258.69;;;16.11
64175;BMP280;50469;50.438;-119.202;2022-09-12T03:29:56;97264.84;;;16.11
64175;BMP280;50469;50.438;-119.202;2022-09-12T03:32:49;97265.16;;;16.26
64175;BMP280;50469;50.438;-119.202;2022-09-12T03:35:19;97268.88;;;15.81
64175;BMP280;50469;50.438;-119.202;2022-09-12T03:37:51;97265.63;;;15.22
64175;BMP280;50469;50.438;-119.202;2022-09-12T03:40:24;97272.47;;;15.91
64175;BMP280;50469;50.438;-119.202;2022-09-12T03:42:54;97272.78;;;15.80
64175;BMP280;50469;50.438;-119.202;2022-09-12T03:45:22;97269.19;;;15.70
64175;BMP280;50469;50.438;-119.202;2022-09-12T03:47:53;97272.53;;;15.49
64175;BMP280;50469;50.438;-119.202;2022-09-12T03:50:23;97279.47;;;15.75
64175;BMP280;50469;50.438;-119.202;2022-09-12T03:52:51;97278.19;;;15.80
64175;BMP280;50469;50.438;-119.202;2022-09-12T03:55:19;97284.19;;;15.59
64175;BMP280;50469;50.438;-119.202;2022-09-12T03:57:47;97278.47;;;15.82
64175;BMP280;50469;50.438;-119.202;2022-09-12T04:00:19;97280.75;;;15.03
64175;BMP280;50469;50.438;-119.202;2022-09-12T04:02:52;97295.22;;;14.97
64175;BMP280;50469;50.438;-119.202;2022-09-12T04:05:20;97293.84;;;15.05
64175;BMP280;50469;50.438;-119.202;2022-09-12T04:07:48;97293.78;;;14.92
64175;BMP280;50469;50.438;-119.202;2022-09-12T04:10:19;97286.91;;;15.04
64175;BMP280;50469;50.438;-119.202;2022-09-12T04:12:48;97289.97;;;15.19
64175;BMP280;50469;50.438;-119.202;2022-09-12T04:15:16;97301.28;;;14.39
64175;BMP280;50469;50.438;-119.202;2022-09-12T04:17:47;97303.63;;;14.70
64175;BMP280;50469;50.438;-119.202;2022-09-12T04:20:15;97299.91;;;14.93
64175;BMP280;50469;50.438;-119.202;2022-09-12T04:22:43;97301.75;;;14.96
64175;BMP280;50469;50.438;-119.202;2022-09-12T04:25:14;97300.81;;;15.02
64175;BMP280;50469;50.438;-119.202;2022-09-12T04:27:42;97300.81;;;15.02
64175;BMP280;50469;50.438;-119.202;2022-09-12T04:30:10;97298.88;;;15.03
64175;BMP280;50469;50.438;-119.202;2022-09-12T04:32:41;97303.16;;;14.88
64175;BMP280;50469;50.438;-119.202;2022-09-12T04:35:09;97304.53;;;14.63
64175;BMP280;50469;50.438;-119.202;2022-09-12T04:37:37;97313.66;;;14.36
64175;BMP280;50469;50.438;-119.202;2022-09-12T04:40:06;97315.06;;;14.08
64175;BMP280;50469;50.438;-119.202;2022-09-12T04:42:34;97320.91;;;13.70
64175;BMP280;50469;50.438;-119.202;2022-09-12T04:45:02;97321.19;;;13.56
64175;BMP280;50469;50.438;-119.202;2022-09-12T04:47:30;97328.94;;;13.90
64175;BMP280;50469;50.438;-119.202;2022-09-12T04:49:58;97335.94;;;13.68
64175;BMP280;50469;50.438;-119.202;2022-09-12T04:52:29;97329.88;;;13.44
64175;BMP280;50469;50.438;-119.202;2022-09-12T04:54:57;97331.94;;;13.16
64175;BMP280;50469;50.438;-119.202;2022-09-12T04:57:28;97332.16;;;13.25
64175;BMP280;50469;50.438;-119.202;2022-09-12T04:59:59;97329.94;;;13.60
64175;BMP280;50469;50.438;-119.202;2022-09-12T05:02:33;97325.41;;;13.37
64175;BMP280;50469;50.438;-119.202;2022-09-12T05:05:01;97331.31;;;13.29
64175;BMP280;50469;50.438;-119.202;2022-09-12T05:07:33;97324.38;;;13.11
64175;BMP280;50469;50.438;-119.202;2022-09-12T05:10:02;97329.00;;;13.51
64175;BMP280;50469;50.438;-119.202;2022-09-12T05:12:33;97324.13;;;13.82
64175;BMP280;50469;50.438;-119.202;2022-09-12T05:15:03;97327.81;;;13.88
64175;BMP280;50469;50.438;-119.202;2022-09-12T05:17:34;97326.16;;;13.94
64175;BMP280;50469;50.438;-119.202;2022-09-12T05:20:04;97327.31;;;13.93
64175;BMP280;50469;50.438;-119.202;2022-09-12T05:22:33;97329.25;;;13.92
64175;BMP280;50469;50.438;-119.202;2022-09-12T05:25:03;97326.94;;;13.75
64175;BMP280;50469;50.438;-119.202;2022-09-12T05:27:31;97330.56;;;13.28
64175;BMP280;50469;50.438;-119.202;2022-09-12T05:29:59;97330.56;;;12.61
64175;BMP280;50469;50.438;-119.202;2022-09-12T05:32:30;97337.94;;;12.57
64175;BMP280;50469;50.438;-119.202;2022-09-12T05:34:58;97336.22;;;12.67
64175;BMP280;50469;50.438;-119.202;2022-09-12T05:37:29;97322.91;;;12.83
64175;BMP280;50469;50.438;-119.202;2022-09-12T05:40:00;97334.63;;;12.73
64175;BMP280;50469;50.438;-119.202;2022-09-12T05:42:29;97331.84;;;12.53
64175;BMP280;50469;50.438;-119.202;2022-09-12T05:45:00;97335.59;;;12.59
64175;BMP280;50469;50.438;-119.202;2022-09-12T05:47:28;97337.88;;;12.84
64175;BMP280;50469;50.438;-119.202;2022-09-12T05:49:56;97337.03;;;12.87
64175;BMP280;50469;50.438;-119.202;2022-09-12T05:52:24;97339.47;;;12.54
64175;BMP280;50469;50.438;-119.202;2022-09-12T05:54:53;97342.03;;;12.65
64175;BMP280;50469;50.438;-119.202;2022-09-12T05:57:21;97345.22;;;12.80
64175;BMP280;50469;50.438;-119.202;2022-09-12T05:59:52;97349.38;;;12.85
64175;BMP280;50469;50.438;-119.202;2022-09-12T06:02:20;97348.47;;;12.17
64175;BMP280;50469;50.438;-119.202;2022-09-12T06:04:48;97351.81;;;12.25
64175;BMP280;50469;50.438;-119.202;2022-09-12T06:07:18;97349.47;;;12.54
64175;BMP280;50469;50.438;-119.202;2022-09-12T06:09:46;97354.91;;;12.23
64175;BMP280;50469;50.438;-119.202;2022-09-12T06:12:14;97352.53;;;12.29
64175;BMP280;50469;50.438;-119.202;2022-09-12T06:14:42;97357.34;;;12.14
64175;BMP280;50469;50.438;-119.202;2022-09-12T06:17:10;97358.63;;;12.06
64175;BMP280;50469;50.438;-119.202;2022-09-12T06:19:38;97362.06;;;12.06
64175;BMP280;50469;50.438;-119.202;2022-09-12T06:22:06;97367.41;;;12.37
64175;BMP280;50469;50.438;-119.202;2022-09-12T06:24:34;97373.69;;;11.96
64175;BMP280;50469;50.438;-119.202;2022-09-12T06:27:03;97378.59;;;11.71
64175;BMP280;50469;50.438;-119.202;2022-09-12T06:29:34;97371.94;;;11.82
64175;BMP280;50469;50.438;-119.202;2022-09-12T06:32:02;97377.34;;;11.79
64175;BMP280;50469;50.438;-119.202;2022-09-12T06:34:30;97379.84;;;11.59
64175;BMP280;50469;50.438;-119.202;2022-09-12T06:36:59;97374.19;;;11.84
64175;BMP280;50469;50.438;-119.202;2022-09-12T06:39:32;97372.88;;;11.65
64175;BMP280;50469;50.438;-119.202;2022-09-12T06:42:00;97374.09;;;11.95
64175;BMP280;50469;50.438;-119.202;2022-09-12T06:44:28;97376.22;;;12.07
64175;BMP280;50469;50.438;-119.202;2022-09-12T06:46:56;97370.03;;;12.13
64175;BMP280;50469;50.438;-119.202;2022-09-12T06:49:27;97375.75;;;12.16
64175;BMP280;50469;50.438;-119.202;2022-09-12T06:51:55;97373.56;;;11.38
64175;BMP280;50469;50.438;-119.202;2022-09-12T06:54:23;97377.31;;;11.82
64175;BMP280;50469;50.438;-119.202;2022-09-12T06:56:51;97380.16;;;11.99
64175;BMP280;50469;50.438;-119.202;2022-09-12T06:59:19;97380.56;;;11.97
64175;BMP280;50469;50.438;-119.202;2022-09-12T07:01:47;97393.44;;;11.79
64175;BMP280;50469;50.438;-119.202;2022-09-12T07:04:15;97383.50;;;11.76
64175;BMP280;50469;50.438;-119.202;2022-09-12T07:06:43;97385.59;;;11.91
64175;BMP280;50469;50.438;-119.202;2022-09-12T07:09:14;97380.66;;;11.56
64175;BMP280;50469;50.438;-119.202;2022-09-12T07:11:43;97382.84;;;11.64
64175;BMP280;50469;50.438;-119.202;2022-09-12T07:14:13;97380.75;;;11.45
64175;BMP280;50469;50.438;-119.202;2022-09-12T07:16:44;97374.19;;;11.53
64175;BMP280;50469;50.438;-119.202;2022-09-12T07:19:12;97379.94;;;11.52
64175;BMP280;50469;50.438;-119.202;2022-09-12T07:21:40;97378.28;;;11.23
64175;BMP280;50469;50.438;-119.202;2022-09-12T07:24:09;97380.22;;;11.19
64175;BMP280;50469;50.438;-119.202;2022-09-12T07:26:38;97381.50;;;11.49
64175;BMP280;50469;50.438;-119.202;2022-09-12T07:29:11;97377.41;;;11.37
64175;BMP280;50469;50.438;-119.202;2022-09-12T07:32:00;97383.94;;;10.88
64175;BMP280;50469;50.438;-119.202;2022-09-12T07:34:28;97375.22;;;11.21
64175;BMP280;50469;50.438;-119.202;2022-09-12T07:36:59;97387.28;;;11.02
64175;BMP280;50469;50.438;-119.202;2022-09-12T07:39:29;97376.28;;;11.31
64175;BMP280;50469;50.438;-119.202;2022-09-12T07:41:58;97379.44;;;11.22
64175;BMP280;50469;50.438;-119.202;2022-09-12T07:44:29;97384.97;;;11.04
64175;BMP280;50469;50.438;-119.202;2022-09-12T07:46:57;97385.00;;;11.01
64175;BMP280;50469;50.438;-119.202;2022-09-12T07:49:27;97385.31;;;11.10
64175;BMP280;50469;50.438;-119.202;2022-09-12T07:51:57;97388.41;;;11.05
64175;BMP280;50469;50.438;-119.202;2022-09-12T07:54:25;97381.91;;;11.06
64175;BMP280;50469;50.438;-119.202;2022-09-12T07:56:53;97387.06;;;10.79
64175;BMP280;50469;50.438;-119.202;2022-09-12T07:59:24;97389.69;;;10.86
64175;BMP280;50469;50.438;-119.202;2022-09-12T08:02:14;97385.84;;;10.91
64175;BMP280;50469;50.438;-119.202;2022-09-12T08:04:44;97379.72;;;10.90
64175;BMP280;50469;50.438;-119.202;2022-09-12T08:07:12;97374.25;;;11.04
64175;BMP280;50469;50.438;-119.202;2022-09-12T08:09:40;97380.72;;;11.07
64175;BMP280;50469;50.438;-119.202;2022-09-12T08:12:08;97385.72;;;11.05
64175;BMP280;50469;50.438;-119.202;2022-09-12T08:14:38;97386.47;;;11.06
64175;BMP280;50469;50.438;-119.202;2022-09-12T08:17:12;97380.53;;;10.84
64175;BMP280;50469;50.438;-119.202;2022-09-12T08:19:40;97382.88;;;10.78
64175;BMP280;50469;50.438;-119.202;2022-09-12T08:22:10;97392.47;;;10.75
64175;BMP280;50469;50.438;-119.202;2022-09-12T08:24:42;97390.78;;;10.33
64175;BMP280;50469;50.438;-119.202;2022-09-12T08:27:10;97384.25;;;10.45
64175;BMP280;50469;50.438;-119.202;2022-09-12T08:29:40;97395.13;;;10.09
64175;BMP280;50469;50.438;-119.202;2022-09-12T08:32:09;97396.31;;;9.97
64175;BMP280;50469;50.438;-119.202;2022-09-12T08:34:42;97401.66;;;9.97
64175;BMP280;50469;50.438;-119.202;2022-09-12T08:37:10;97403.81;;;10.27
64175;BMP280;50469;50.438;-119.202;2022-09-12T08:39:40;97407.69;;;10.12
64175;BMP280;50469;50.438;-119.202;2022-09-12T08:42:18;97405.66;;;10.41
64175;BMP280;50469;50.438;-119.202;2022-09-12T08:45:04;97399.94;;;10.43
64175;BMP280;50469;50.438;-119.202;2022-09-12T08:47:37;97402.31;;;10.23
64175;BMP280;50469;50.438;-119.202;2022-09-12T08:53:03;97411.44;;;10.36
64175;BMP280;50469;50.438;-119.202;2022-09-12T08:55:40;97412.19;;;10.33
64175;BMP280;50469;50.438;-119.202;2022-09-12T08:58:18;97422.88;;;10.40
64175;BMP280;50469;50.438;-119.202;2022-09-12T09:00:54;97411.44;;;10.32
64175;BMP280;50469;50.438;-119.202;2022-09-12T09:06:54;97410.88;;;9.75
64175;BMP280;50469;50.438;-119.202;2022-09-12T09:18:07;97406.72;;;9.66
64175;BMP280;50469;50.438;-119.202;2022-09-12T09:31:18;97405.16;;;9.83
64175;BMP280;50469;50.438;-119.202;2022-09-12T09:33:53;97399.00;;;9.86
64175;BMP280;50469;50.438;-119.202;2022-09-12T09:44:55;97384.19;;;9.64
64175;BMP280;50469;50.438;-119.202;2022-09-12T09:47:26;97389.91;;;9.59
64175;BMP280;50469;50.438;-119.202;2022-09-12T09:49:55;97393.75;;;9.43
64175;BMP280;50469;50.438;-119.202;2022-09-12T09:52:28;97395.28;;;9.34
64175;BMP280;50469;50.438;-119.202;2022-09-12T09:55:00;97399.09;;;9.04
64175;BMP280;50469;50.438;-119.202;2022-09-12T10:08:33;97414.41;;;9.11
64175;BMP280;50469;50.438;-119.202;2022-09-12T10:11:15;97409.44;;;9.09
64175;BMP280;50469;50.438;-119.202;2022-09-12T10:13:56;97410.56;;;9.08
64175;BMP280;50469;50.438;-119.202;2022-09-12T10:16:34;97404.84;;;9.06
64175;BMP280;50469;50.438;-119.202;2022-09-12T10:19:32;97402.53;;;9.12
64175;BMP280;50469;50.438;-119.202;2022-09-12T10:22:03;97406.00;;;9.05
64175;BMP280;50469;50.438;-119.202;2022-09-12T10:24:40;97407.50;;;9.02
64175;BMP280;50469;50.438;-119.202;2022-09-12T10:29:59;97400.16;;;8.53
64175;BMP280;50469;50.438;-119.202;2022-09-12T10:32:35;97405.56;;;8.74
64175;BMP280;50469;50.438;-119.202;2022-09-12T10:35:16;97411.66;;;8.75
64175;BMP280;50469;50.438;-119.202;2022-09-12T10:40:26;97400.25;;;8.78
64175;BMP280;50469;50.438;-119.202;2022-09-12T10:42:58;97394.88;;;8.71
64175;BMP280;50469;50.438;-119.202;2022-09-12T10:45:34;97394.50;;;8.69
64175;BMP280;50469;50.438;-119.202;2022-09-12T10:48:23;97385.38;;;8.70
64175;BMP280;50469;50.438;-119.202;2022-09-12T10:50:55;97394.88;;;8.71
64175;BMP280;50469;50.438;-119.202;2022-09-12T10:53:30;97392.22;;;8.78
64175;BMP280;50469;50.438;-119.202;2022-09-12T10:56:17;97391.47;;;8.77
64175;BMP280;50469;50.438;-119.202;2022-09-12T10:59:07;97388.03;;;8.77
64175;BMP280;50469;50.438;-119.202;2022-09-12T11:02:13;97388.75;;;8.59
64175;BMP280;50469;50.438;-119.202;2022-09-12T11:04:48;97391.56;;;7.93
64175;BMP280;50469;50.438;-119.202;2022-09-12T11:07:45;97397.59;;;7.87
64175;BMP280;50469;50.438;-119.202;2022-09-12T11:10:44;97408.66;;;7.85
64175;BMP280;50469;50.438;-119.202;2022-09-12T11:27:48;97393.31;;;8.48
64175;BMP280;50469;50.438;-119.202;2022-09-12T11:30:18;97383.34;;;8.31
64175;BMP280;50469;50.438;-119.202;2022-09-12T11:38:25;97384.47;;;8.26
64175;BMP280;50469;50.438;-119.202;2022-09-12T11:41:05;97382.97;;;8.36
64175;BMP280;50469;50.438;-119.202;2022-09-12T11:46:44;97376.53;;;8.48
64175;BMP280;50469;50.438;-119.202;2022-09-12T11:49:32;97376.19;;;7.69
64175;BMP280;50469;50.438;-119.202;2022-09-12T11:55:06;97370.38;;;7.49
64175;BMP280;50469;50.438;-119.202;2022-09-12T12:00:21;97362.75;;;8.31
64175;BMP280;50469;50.438;-119.202;2022-09-12T12:08:17;97375.81;;;8.72
64175;BMP280;50469;50.438;-119.202;2022-09-12T12:11:00;97365.41;;;8.20
64175;BMP280;50469;50.438;-119.202;2022-09-12T12:16:25;97372.34;;;8.57
64175;BMP280;50469;50.438;-119.202;2022-09-12T12:18:56;97368.88;;;8.35
64175;BMP280;50469;50.438;-119.202;2022-09-12T12:21:31;97381.09;;;8.36
64175;BMP280;50469;50.438;-119.202;2022-09-12T12:24:10;97381.09;;;8.40
64175;BMP280;50469;50.438;-119.202;2022-09-12T12:26:40;97390.63;;;8.52
64175;BMP280;50469;50.438;-119.202;2022-09-12T12:29:10;97385.66;;;8.39
64175;BMP280;50469;50.438;-119.202;2022-09-12T12:34:35;97391.69;;;8.18
64175;BMP280;50469;50.438;-119.202;2022-09-12T12:47:51;97378.72;;;8.20
64175;BMP280;50469;50.438;-119.202;2022-09-12T12:50:22;97378.00;;;8.31
64175;BMP280;50469;50.438;-119.202;2022-09-12T12:52:54;97368.38;;;8.05
64175;BMP280;50469;50.438;-119.202;2022-09-12T12:55:24;97367.66;;;8.15
64175;BMP280;50469;50.438;-119.202;2022-09-12T12:57:54;97370.34;;;8.29
64175;BMP280;50469;50.438;-119.202;2022-09-12T13:05:28;97372.31;;;8.39
64175;BMP280;50469;50.438;-119.202;2022-09-12T13:10:37;97375.28;;;8.20
64175;BMP280;50469;50.438;-119.202;2022-09-12T13:13:06;97366.50;;;8.12
64175;BMP280;50469;50.438;-119.202;2022-09-12T13:18:09;97363.50;;;8.25
64175;BMP280;50469;50.438;-119.202;2022-09-12T13:20:49;97379.13;;;8.30
64175;BMP280;50469;50.438;-119.202;2022-09-12T13:23:29;97386.03;;;8.45
64175;BMP280;50469;50.438;-119.202;2022-09-12T13:26:01;97381.84;;;7.64
64175;BMP280;50469;50.438;-119.202;2022-09-12T13:28:31;97380.72;;;7.61
64175;BMP280;50469;50.438;-119.202;2022-09-12T13:42:02;97365.72;;;8.08
64175;BMP280;50469;50.438;-119.202;2022-09-12T13:47:21;97373.00;;;8.18
64175;BMP280;50469;50.438;-119.202;2022-09-12T13:49:56;97374.53;;;8.19
64175;BMP280;50469;50.438;-119.202;2022-09-12T13:52:28;97384.81;;;8.21
64175;BMP280;50469;50.438;-119.202;2022-09-12T13:55:04;97386.00;;;8.27
64175;BMP280;50469;50.438;-119.202;2022-09-12T13:57:36;97390.94;;;8.25
64175;BMP280;50469;50.438;-119.202;2022-09-12T14:00:16;97396.25;;;8.21
64175;BMP280;50469;50.438;-119.202;2022-09-12T14:02:47;97399.03;;;8.54
64175;BMP280;50469;50.438;-119.202;2022-09-12T14:05:22;97400.09;;;8.28
64175;BMP280;50469;50.438;-119.202;2022-09-12T14:07:55;97403.59;;;8.46
64175;BMP280;50469;50.438;-119.202;2022-09-12T14:10:50;97404.41;;;8.79
64175;BMP280;50469;50.438;-119.202;2022-09-12T14:13:23;97402.91;;;8.96
64175;BMP280;50469;50.438;-119.202;2022-09-12T14:15:53;97409.00;;;8.78
64175;BMP280;50469;50.438;-119.202;2022-09-12T14:18:29;97415.50;;;8.77
64175;BMP280;50469;50.438;-119.202;2022-09-12T14:21:11;97424.28;;;8.96
64175;BMP280;50469;50.438;-119.202;2022-09-12T14:23:45;97433.78;;;8.75
64175;BMP280;50469;50.438;-119.202;2022-09-12T14:26:15;97445.66;;;8.96
64175;BMP280;50469;50.438;-119.202;2022-09-12T14:28:44;97447.94;;;9.04
64175;BMP280;50469;50.438;-119.202;2022-09-12T14:33:51;97442.22;;;9.52
64175;BMP280;50469;50.438;-119.202;2022-09-12T14:38:57;97444.09;;;9.84
64175;BMP280;50469;50.438;-119.202;2022-09-12T14:41:39;97440.22;;;10.03
64175;BMP280;50469;50.438;-119.202;2022-09-12T14:44:18;97414.97;;;10.08
64175;BMP280;50469;50.438;-119.202;2022-09-12T14:46:48;97396.22;;;10.15
64175;BMP280;50469;50.438;-119.202;2022-09-12T14:49:27;97393.13;;;10.24
64175;BMP280;50469;50.438;-119.202;2022-09-12T14:51:59;97412.19;;;10.29
64175;BMP280;50469;50.438;-119.202;2022-09-12T14:57:00;97413.56;;;10.63
64175;BMP280;50469;50.438;-119.202;2022-09-12T15:04:53;97426.50;;;10.78
64175;BMP280;50469;50.438;-119.202;2022-09-12T15:07:35;97420.22;;;10.99
64175;BMP280;50469;50.438;-119.202;2022-09-12T15:12:40;97419.25;;;11.24
64175;BMP280;50469;50.438;-119.202;2022-09-12T15:15:19;97414.59;;;11.32
64175;BMP280;50469;50.438;-119.202;2022-09-12T15:17:47;97406.03;;;11.47
64175;BMP280;50469;50.438;-119.202;2022-09-12T15:20:18;97409.03;;;11.53
64175;BMP280;50469;50.438;-119.202;2022-09-12T15:22:46;97407.94;;;11.47
64175;BMP280;50469;50.438;-119.202;2022-09-12T15:25:17;97404.88;;;11.45
64175;BMP280;50469;50.438;-119.202;2022-09-12T15:27:46;97402.88;;;11.56
64175;BMP280;50469;50.438;-119.202;2022-09-12T15:30:14;97399.09;;;11.50
64175;BMP280;50469;50.438;-119.202;2022-09-12T15:32:48;97402.34;;;11.68
64175;BMP280;50469;50.438;-119.202;2022-09-12T15:35:22;97391.94;;;11.74
64175;BMP280;50469;50.438;-119.202;2022-09-12T15:37:50;97391.22;;;11.70
64175;BMP280;50469;50.438;-119.202;2022-09-12T15:40:18;97380.03;;;11.79
64175;BMP280;50469;50.438;-119.202;2022-09-12T15:42:46;97382.38;;;11.73
64175;BMP280;50469;50.438;-119.202;2022-09-12T15:47:45;97390.16;;;11.60
64175;BMP280;50469;50.438;-119.202;2022-09-12T15:50:14;97378.69;;;11.60
64175;BMP280;50469;50.438;-119.202;2022-09-12T15:52:42;97364.84;;;11.65
64175;BMP280;50469;50.438;-119.202;2022-09-12T15:55:21;97376.19;;;11.80
64175;BMP280;50469;50.438;-119.202;2022-09-12T15:57:50;97392.97;;;11.84
64175;BMP280;50469;50.438;-119.202;2022-09-12T16:00:18;97391.84;;;11.81
64175;BMP280;50469;50.438;-119.202;2022-09-12T16:02:49;97395.09;;;12.00
64175;BMP280;50469;50.438;-119.202;2022-09-12T16:05:22;97405.09;;;11.96
64175;BMP280;50469;50.438;-119.202;2022-09-12T16:07:53;97406.56;;;12.04
64175;BMP280;50469;50.438;-119.202;2022-09-12T16:10:24;97403.75;;;12.11
64175;BMP280;50469;50.438;-119.202;2022-09-12T16:12:55;97404.41;;;12.22
64175;BMP280;50469;50.438;-119.202;2022-09-12T16:15:26;97389.22;;;12.39
64175;BMP280;50469;50.438;-119.202;2022-09-12T16:17:55;97384.16;;;12.45
64175;BMP280;50469;50.438;-119.202;2022-09-12T16:20:25;97397.03;;;12.57
64175;BMP280;50469;50.438;-119.202;2022-09-12T16:22:56;97390.78;;;12.64
64175;BMP280;50469;50.438;-119.202;2022-09-12T16:25:24;97388.13;;;12.60
64175;BMP280;50469;50.438;-119.202;2022-09-12T16:27:52;97391.94;;;12.63
64175;BMP280;50469;50.438;-119.202;2022-09-12T16:30:20;97389.97;;;12.67
64175;BMP280;50469;50.438;-119.202;2022-09-12T16:32:50;97395.06;;;12.85
64175;BMP280;50469;50.438;-119.202;2022-09-12T16:35:18;97390.28;;;12.96
64175;BMP280;50469;50.438;-119.202;2022-09-12T16:37:46;97387.22;;;12.94
64175;BMP280;50469;50.438;-119.202;2022-09-12T16:40:15;97396.75;;;12.98
64175;BMP280;50469;50.438;-119.202;2022-09-12T16:42:45;97403.66;;;12.99
64175;BMP280;50469;50.438;-119.202;2022-09-12T16:45:14;97393.75;;;13.16
64175;BMP280;50469;50.438;-119.202;2022-09-12T16:47:42;97409.25;;;13.32
64175;BMP280;50469;50.438;-119.202;2022-09-12T16:50:11;97407.69;;;13.75
64175;BMP280;50469;50.438;-119.202;2022-09-12T16:52:39;97405.53;;;13.86
64175;BMP280;50469;50.438;-119.202;2022-09-12T16:55:07;97411.59;;;14.10
64175;BMP280;50469;50.438;-119.202;2022-09-12T16:57:36;97410.56;;;14.04
64175;BMP280;50469;50.438;-119.202;2022-09-12T17:00:05;97418.41;;;14.14
64175;BMP280;50469;50.438;-119.202;2022-09-12T17:02:33;97413.84;;;14.11
64175;BMP280;50469;50.438;-119.202;2022-09-12T17:05:02;97418.13;;;14.09
64175;BMP280;50469;50.438;-119.202;2022-09-12T17:07:35;97420.53;;;14.23
64175;BMP280;50469;50.438;-119.202;2022-09-12T17:10:03;97422.00;;;14.44
64175;BMP280;50469;50.438;-119.202;2022-09-12T17:12:31;97415.44;;;14.61
64175;BMP280;50469;50.438;-119.202;2022-09-12T17:15:02;97424.78;;;14.73
64175;BMP280;50469;50.438;-119.202;2022-09-12T17:17:30;97432.47;;;14.91